Indianapolis, Indiana
Traffic Map
Current Weather Conditions
Indianapolis, Indiana
Few Clouds
Few Clouds
47°
Feels Like: 42°
Wind Chill: 42° Ceiling: Unl
Heat Index: 47° Visibility: 10mi
Dew Point: 37° Wind: 12mph
Humidity: 68% Direction: 50° (NE)
Pressure: 30.2in Gusts: 0mph
Raw Report DataKIND 220454Z 05010KT 10SM FEW039 08/03 A3020 RMK AO2 SLP227 T00830028 401390067
Traffic Incident Summary
Active as of:
Severity:
Category:
InformationThere was an issue retrieving the traffic information for this location. Please try a different location or try again shortly.
Advertisements
Track Severe Weather on mobile